createdAt,value
2023-02-24T00:02:01.572Z,9.80
2023-02-24T00:04:32.485Z,9.80
2023-02-24T00:07:02.772Z,9.70
2023-02-24T00:09:33.538Z,9.70
2023-02-24T00:12:05.925Z,9.70
2023-02-24T00:14:37.430Z,9.70
2023-02-24T00:17:08.050Z,9.70
2023-02-24T00:19:37.253Z,9.70
2023-02-24T00:22:09.360Z,9.70
2023-02-24T00:24:38.334Z,9.60
2023-02-24T00:27:11.165Z,9.60
2023-02-24T00:29:40.700Z,9.60
2023-02-24T00:32:12.893Z,9.60
2023-02-24T00:34:43.164Z,9.60
2023-02-24T00:37:15.444Z,9.60
2023-02-24T00:39:46.361Z,9.60
2023-02-24T00:42:14.828Z,9.60
2023-02-24T00:44:47.376Z,9.60
2023-02-24T00:47:17.923Z,9.60
2023-02-24T00:49:46.787Z,9.60
2023-02-24T00:52:19.999Z,9.60
2023-02-24T00:54:50.672Z,9.60
2023-02-24T00:57:21.365Z,9.60
2023-02-24T00:59:52.748Z,9.60
2023-02-24T01:02:21.542Z,9.60
2023-02-24T01:04:50.975Z,9.60
2023-02-24T01:07:21.037Z,9.60
2023-02-24T01:09:52.255Z,9.60
2023-02-24T01:12:38.640Z,9.60
2023-02-24T01:15:11.188Z,9.60
2023-02-24T01:17:41.129Z,9.60
2023-02-24T01:20:19.817Z,9.60
2023-02-24T01:22:53.278Z,9.50
2023-02-24T01:25:22.345Z,9.50
2023-02-24T01:27:50.939Z,9.50
2023-02-24T01:30:19.310Z,9.60
2023-02-24T01:32:48.580Z,9.50
2023-02-24T01:35:17.656Z,9.50
2023-02-24T01:37:46.686Z,9.50
2023-02-24T01:40:21.565Z,9.50
2023-02-24T01:42:51.758Z,9.50
2023-02-24T01:45:25.344Z,9.50
2023-02-24T01:47:58.098Z,9.50
2023-02-24T01:50:27.814Z,9.50
2023-02-24T01:53:00.243Z,9.40
2023-02-24T01:55:34.680Z,9.40
2023-02-24T01:58:09.427Z,9.40
2023-02-24T02:00:38.961Z,9.40
2023-02-24T02:03:15.617Z,9.40
2023-02-24T02:05:45.185Z,9.40
2023-02-24T02:08:15.301Z,9.30
2023-02-24T02:10:45.601Z,9.30
2023-02-24T02:13:20.862Z,9.30
2023-02-24T02:16:18.438Z,9.20
2023-02-24T02:18:57.458Z,9.20
2023-02-24T02:22:08.567Z,9.20
2023-02-24T02:24:53.989Z,9.20
2023-02-24T02:28:23.446Z,9.20
2023-02-24T02:31:25.953Z,9.10
2023-02-24T02:34:38.407Z,9.10
2023-02-24T02:37:13.904Z,9.20
2023-02-24T02:39:52.586Z,9.10
2023-02-24T02:42:30.218Z,9.10
2023-02-24T02:45:08.109Z,9.20
2023-02-24T02:47:44.131Z,9.10
2023-02-24T02:50:26.889Z,9.20
2023-02-24T02:52:59.843Z,9.20
2023-02-24T02:55:36.608Z,9.20
2023-02-24T02:58:10.734Z,9.20
2023-02-24T03:00:50.138Z,9.20
2023-02-24T03:03:20.888Z,9.20
2023-02-24T03:05:57.590Z,9.20
2023-02-24T03:08:30.833Z,9.20
2023-02-24T03:11:02.691Z,9.20
2023-02-24T03:13:37.823Z,9.20
2023-02-24T03:16:08.167Z,9.20
2023-02-24T03:18:40.460Z,9.20
2023-02-24T03:21:16.176Z,9.20
2023-02-24T03:23:49.003Z,9.20
2023-02-24T03:26:28.187Z,9.20
2023-02-24T03:29:05.618Z,9.20
2023-02-24T03:31:43.620Z,9.20
2023-02-24T03:34:16.214Z,9.20
2023-02-24T03:36:46.003Z,9.20
2023-02-24T03:39:16.078Z,9.20
2023-02-24T03:42:12.813Z,9.20
2023-02-24T03:44:41.284Z,9.20
2023-02-24T03:47:10.649Z,9.20
2023-02-24T03:49:43.593Z,9.20
2023-02-24T03:52:29.121Z,9.20
2023-02-24T03:55:23.983Z,9.20
2023-02-24T03:58:08.415Z,9.20
2023-02-24T04:00:48.129Z,9.20
2023-02-24T04:03:29.536Z,9.20
2023-02-24T04:06:15.566Z,9.20
2023-02-24T04:08:53.252Z,9.20
2023-02-24T04:11:29.681Z,9.30
2023-02-24T04:14:06.458Z,9.30
2023-02-24T04:16:44.442Z,9.30
2023-02-24T04:19:19.548Z,9.30
2023-02-24T04:21:52.028Z,9.30
2023-02-24T04:24:32.123Z,9.30
2023-02-24T04:27:08.107Z,9.30
2023-02-24T04:29:48.406Z,9.30
2023-02-24T04:32:23.087Z,9.30
2023-02-24T04:34:52.514Z,9.30
2023-02-24T04:37:23.121Z,9.30
2023-02-24T04:39:53.950Z,9.30
2023-02-24T04:42:29.030Z,9.30
2023-02-24T04:44:58.584Z,9.30
2023-02-24T04:47:28.896Z,9.30
2023-02-24T04:49:57.311Z,9.30
2023-02-24T04:52:25.642Z,9.30
2023-02-24T04:54:55.459Z,9.30
2023-02-24T04:57:25.055Z,9.30
2023-02-24T04:59:54.164Z,9.30
2023-02-24T05:02:22.533Z,9.30
2023-02-24T05:04:51.255Z,9.30
2023-02-24T05:07:22.493Z,9.30
2023-02-24T05:09:50.838Z,9.30
2023-02-24T05:12:21.211Z,9.30
2023-02-24T05:14:49.852Z,9.30
2023-02-24T05:17:18.774Z,9.30
2023-02-24T05:20:04.871Z,9.30
2023-02-24T05:22:33.219Z,9.30
2023-02-24T05:25:01.566Z,9.30
2023-02-24T05:27:31.726Z,9.30
2023-02-24T05:30:00.428Z,9.30
2023-02-24T05:32:29.372Z,9.30
2023-02-24T05:34:57.886Z,9.30
2023-02-24T05:37:27.277Z,9.30
2023-02-24T05:39:56.851Z,9.30
2023-02-24T05:42:25.351Z,9.30
2023-02-24T05:44:55.582Z,9.20
2023-02-24T05:47:26.038Z,9.30
2023-02-24T05:49:57.052Z,9.30
2023-02-24T05:52:25.524Z,9.20
2023-02-24T05:54:53.916Z,9.20
2023-02-24T05:57:24.962Z,9.20
2023-02-24T05:59:55.895Z,9.20
2023-02-24T06:02:27.659Z,9.20
2023-02-24T06:04:56.970Z,9.20
2023-02-24T06:07:28.422Z,9.20
2023-02-24T06:10:00.179Z,9.20
2023-02-24T06:12:31.640Z,9.20
2023-02-24T06:15:02.383Z,9.20
2023-02-24T06:17:30.892Z,9.20
2023-02-24T06:19:59.863Z,9.20
2023-02-24T06:22:29.153Z,9.20
2023-02-24T06:24:57.741Z,9.20
2023-02-24T06:27:27.066Z,9.20
2023-02-24T06:29:56.822Z,9.10
2023-02-24T06:32:28.111Z,9.20
2023-02-24T06:34:59.378Z,9.10
2023-02-24T06:37:28.276Z,9.10
2023-02-24T06:39:58.331Z,9.10
2023-02-24T06:42:26.690Z,9.10
2023-02-24T06:44:55.034Z,9.10
2023-02-24T06:47:23.425Z,9.10
2023-02-24T06:49:53.563Z,9.10
2023-02-24T06:52:21.976Z,9.00
2023-02-24T06:54:52.339Z,9.00
2023-02-24T06:57:23.521Z,9.00
2023-02-24T06:59:52.308Z,9.00
2023-02-24T07:02:21.018Z,9.00
2023-02-24T07:04:49.509Z,8.90
2023-02-24T07:07:19.867Z,9.00
2023-02-24T07:09:48.399Z,9.00
2023-02-24T07:12:20.881Z,9.00
2023-02-24T07:14:51.089Z,8.90
2023-02-24T07:17:19.988Z,9.00
2023-02-24T07:19:48.619Z,8.90
2023-02-24T07:22:25.122Z,8.90
2023-02-24T07:25:00.529Z,9.00
2023-02-24T07:27:30.080Z,8.90
2023-02-24T07:29:59.211Z,9.00
2023-02-24T07:32:27.880Z,9.00
2023-02-24T07:34:56.334Z,8.90
2023-02-24T07:37:31.537Z,8.90
2023-02-24T07:40:00.042Z,8.90
2023-02-24T07:42:30.621Z,8.90
2023-02-24T07:44:59.070Z,8.90
2023-02-24T07:47:27.463Z,8.90
2023-02-24T07:49:55.841Z,9.00
2023-02-24T07:52:25.588Z,8.90
2023-02-24T07:54:55.115Z,8.90
2023-02-24T07:57:25.121Z,8.90
2023-02-24T07:59:54.156Z,8.90
2023-02-24T08:02:23.762Z,8.90
2023-02-24T08:04:52.484Z,8.90
2023-02-24T08:07:24.943Z,8.90
2023-02-24T08:10:20.876Z,8.90
2023-02-24T08:12:49.284Z,8.90
2023-02-24T08:15:24.094Z,8.90
2023-02-24T08:17:59.451Z,8.90
2023-02-24T08:20:30.335Z,8.90
2023-02-24T08:22:58.722Z,8.90
2023-02-24T08:25:36.496Z,8.90
2023-02-24T08:28:11.433Z,8.90
2023-02-24T08:30:45.659Z,8.90
2023-02-24T08:33:20.219Z,8.90
2023-02-24T08:36:00.991Z,8.90
2023-02-24T08:38:39.822Z,8.90
2023-02-24T08:41:17.736Z,8.90
2023-02-24T08:43:47.481Z,8.90
2023-02-24T08:46:21.037Z,8.90
2023-02-24T08:48:55.472Z,8.90
2023-02-24T08:51:28.898Z,8.90
2023-02-24T08:54:00.409Z,8.90
2023-02-24T08:56:34.734Z,8.90
2023-02-24T08:59:07.159Z,8.90
2023-02-24T09:01:39.122Z,8.90
2023-02-24T09:04:10.881Z,8.90
2023-02-24T09:06:44.945Z,8.90
2023-02-24T09:09:18.983Z,8.90
2023-02-24T09:11:55.830Z,8.90
2023-02-24T09:14:29.205Z,8.90
2023-02-24T09:17:03.574Z,8.90
2023-02-24T09:20:02.410Z,8.90
2023-02-24T09:22:33.133Z,8.90
2023-02-24T09:25:21.639Z,8.90
2023-02-24T09:27:55.756Z,8.90
2023-02-24T09:30:37.509Z,8.90
2023-02-24T09:33:21.262Z,9.00
2023-02-24T09:35:54.109Z,9.00
2023-02-24T09:38:44.186Z,9.00
2023-02-24T09:41:32.942Z,8.90
2023-02-24T09:44:08.026Z,8.90
2023-02-24T09:46:53.885Z,8.90
2023-02-24T09:49:39.907Z,8.90
2023-02-24T09:52:16.928Z,8.90
2023-02-24T09:55:17.603Z,8.90
2023-02-24T09:58:16.206Z,8.90
2023-02-24T10:00:58.474Z,8.90
2023-02-24T10:03:42.701Z,8.90
2023-02-24T10:06:20.971Z,8.90
2023-02-24T10:08:57.166Z,8.90
2023-02-24T10:11:33.858Z,8.90
2023-02-24T10:14:06.967Z,8.90
2023-02-24T10:16:46.365Z,8.90
2023-02-24T10:19:27.520Z,8.90
2023-02-24T10:22:03.011Z,8.90
2023-02-24T10:24:38.828Z,8.90
2023-02-24T10:27:18.065Z,8.90
2023-02-24T10:30:04.037Z,8.90
2023-02-24T10:32:47.031Z,8.90
2023-02-24T10:35:19.235Z,8.90
2023-02-24T10:37:49.239Z,8.80
2023-02-24T10:40:28.944Z,8.90
2023-02-24T10:43:10.577Z,8.80
2023-02-24T10:45:45.328Z,8.80
2023-02-24T10:48:41.510Z,8.80
2023-02-24T10:51:20.201Z,8.90
2023-02-24T10:54:10.168Z,8.80
2023-02-24T10:56:44.570Z,8.70
2023-02-24T10:59:41.211Z,8.70
2023-02-24T11:02:32.705Z,8.70
2023-02-24T11:05:27.396Z,8.70
2023-02-24T11:08:11.063Z,8.70
2023-02-24T11:10:53.380Z,8.70
2023-02-24T11:13:39.769Z,8.60
2023-02-24T11:16:28.128Z,8.60
2023-02-24T11:18:58.335Z,8.60
2023-02-24T11:21:29.868Z,8.60
2023-02-24T11:24:02.913Z,8.60
2023-02-24T11:26:37.231Z,8.60
2023-02-24T11:29:37.064Z,8.60
2023-02-24T11:32:30.517Z,8.60
2023-02-24T11:35:11.995Z,8.60
2023-02-24T11:37:44.883Z,8.60
2023-02-24T11:40:19.825Z,8.60
2023-02-24T11:42:57.140Z,8.50
2023-02-24T11:45:34.979Z,8.50
2023-02-24T11:48:14.785Z,8.50
2023-02-24T11:50:48.685Z,8.50
2023-02-24T11:53:29.077Z,8.50
2023-02-24T11:56:05.010Z,8.50
2023-02-24T11:58:42.655Z,8.50
2023-02-24T12:01:18.549Z,8.50
2023-02-24T12:03:57.284Z,8.50
2023-02-24T12:06:32.034Z,8.50
2023-02-24T12:09:10.357Z,8.50
2023-02-24T12:11:48.736Z,8.50
2023-02-24T12:14:29.306Z,8.40
2023-02-24T12:17:14.025Z,8.40
2023-02-24T12:20:00.075Z,8.40
2023-02-24T12:22:39.939Z,8.40
2023-02-24T12:25:16.731Z,8.40
2023-02-24T12:28:10.923Z,8.40
2023-02-24T12:30:57.664Z,8.40
2023-02-24T12:33:44.199Z,8.40
2023-02-24T12:36:25.021Z,8.40
2023-02-24T12:39:01.964Z,8.40
2023-02-24T12:41:55.615Z,8.40
2023-02-24T12:44:34.683Z,8.40
2023-02-24T12:47:11.066Z,8.40
2023-02-24T12:50:11.887Z,8.50
2023-02-24T12:52:54.871Z,8.40
2023-02-24T12:55:32.535Z,8.40
2023-02-24T12:58:12.087Z,8.40
2023-02-24T13:00:53.934Z,8.40
2023-02-24T13:03:40.387Z,8.40
2023-02-24T13:06:17.976Z,8.40
2023-02-24T13:08:58.485Z,8.40
2023-02-24T13:11:41.485Z,8.40
2023-02-24T13:14:22.339Z,8.40
2023-02-24T13:16:50.764Z,8.40
2023-02-24T13:19:23.633Z,8.40
2023-02-24T13:22:06.630Z,8.40
2023-02-24T13:24:35.939Z,8.40
2023-02-24T13:27:25.203Z,8.40
2023-02-24T13:29:57.885Z,8.40
2023-02-24T13:32:31.757Z,8.40
2023-02-24T13:35:03.493Z,8.40
2023-02-24T13:37:36.121Z,8.40
2023-02-24T13:40:28.121Z,8.30
2023-02-24T13:43:04.838Z,8.40
2023-02-24T13:45:36.810Z,8.40
2023-02-24T13:48:31.987Z,8.30
2023-02-24T13:51:31.202Z,8.30
2023-02-24T13:54:18.399Z,8.30
2023-02-24T13:56:57.583Z,8.30
2023-02-24T13:59:50.044Z,8.30
2023-02-24T14:02:22.824Z,8.30
2023-02-24T14:04:54.526Z,8.30
2023-02-24T14:07:27.070Z,8.30
2023-02-24T14:10:00.429Z,8.30
2023-02-24T14:12:31.936Z,8.30
2023-02-24T14:15:01.334Z,8.30
2023-02-24T14:17:34.159Z,8.30
2023-02-24T14:20:22.005Z,8.20
2023-02-24T14:22:54.331Z,8.20
2023-02-24T14:25:24.743Z,8.30
2023-02-24T14:27:56.604Z,8.30
2023-02-24T14:30:30.790Z,8.30
2023-02-24T14:33:02.082Z,8.30
2023-02-24T14:35:35.982Z,8.30
2023-02-24T14:38:05.910Z,8.30
2023-02-24T14:40:34.415Z,8.30
2023-02-24T14:43:03.840Z,8.30
2023-02-24T14:45:32.214Z,8.30
2023-02-24T14:48:02.329Z,8.30
2023-02-24T14:50:34.186Z,8.30
2023-02-24T14:53:06.787Z,8.30
2023-02-24T14:55:39.017Z,8.30
2023-02-24T14:58:14.122Z,8.30
2023-02-24T15:00:48.880Z,8.30
2023-02-24T15:03:25.489Z,8.30
2023-02-24T15:05:57.058Z,8.40
2023-02-24T15:08:36.033Z,8.30
2023-02-24T15:11:21.097Z,8.30
2023-02-24T15:13:52.721Z,8.40
2023-02-24T15:16:25.364Z,8.40
2023-02-24T15:19:00.917Z,8.40
2023-02-24T15:21:32.729Z,8.40
2023-02-24T15:24:02.502Z,8.40
2023-02-24T15:26:34.407Z,8.40
2023-02-24T15:29:13.875Z,8.40
2023-02-24T15:31:48.679Z,8.40
2023-02-24T15:34:22.754Z,8.50
2023-02-24T15:36:53.347Z,8.50
2023-02-24T15:39:25.440Z,8.50
2023-02-24T15:42:07.992Z,8.50
2023-02-24T15:44:37.942Z,8.50
2023-02-24T15:47:23.557Z,8.50
2023-02-24T15:49:53.792Z,8.50
2023-02-24T15:52:25.472Z,8.50
2023-02-24T15:54:54.993Z,8.50
2023-02-24T15:57:24.953Z,8.60
2023-02-24T15:59:53.513Z,8.50
2023-02-24T16:02:24.781Z,8.60
2023-02-24T16:04:54.586Z,8.60
2023-02-24T16:07:27.435Z,8.60
2023-02-24T16:09:57.842Z,8.60
2023-02-24T16:12:32.013Z,8.60
2023-02-24T16:15:05.419Z,8.60
2023-02-24T16:17:38.851Z,8.60
2023-02-24T16:20:16.208Z,8.60
2023-02-24T16:22:44.771Z,8.70
2023-02-24T16:25:17.744Z,8.70
2023-02-24T16:27:46.214Z,8.70
2023-02-24T16:30:22.120Z,8.70
2023-02-24T16:32:51.407Z,8.70
2023-02-24T16:35:22.448Z,8.70
2023-02-24T16:37:50.926Z,8.70
2023-02-24T16:40:24.129Z,8.60
2023-02-24T16:42:53.419Z,8.60
2023-02-24T16:45:22.972Z,8.60
2023-02-24T16:47:51.663Z,8.60
2023-02-24T16:50:25.673Z,8.60
2023-02-24T16:52:54.116Z,8.60
2023-02-24T16:55:22.995Z,8.60
2023-02-24T16:57:51.461Z,8.60
2023-02-24T17:00:24.315Z,8.60
2023-02-24T17:02:54.150Z,8.60
2023-02-24T17:05:26.969Z,8.60
2023-02-24T17:07:57.577Z,8.60
2023-02-24T17:10:27.017Z,8.60
2023-02-24T17:12:55.321Z,8.60
2023-02-24T17:15:25.303Z,8.60
2023-02-24T17:17:53.702Z,8.60
2023-02-24T17:20:24.011Z,8.60
2023-02-24T17:22:52.504Z,8.60
2023-02-24T17:25:25.438Z,8.60
2023-02-24T17:27:55.343Z,8.60
2023-02-24T17:30:26.913Z,8.60
2023-02-24T17:32:55.507Z,8.60
2023-02-24T17:35:25.728Z,8.60
2023-02-24T17:37:54.484Z,8.60
2023-02-24T17:40:23.978Z,8.60
2023-02-24T17:42:52.523Z,8.60
2023-02-24T17:45:21.644Z,8.70
2023-02-24T17:47:52.612Z,8.60
2023-02-24T17:50:21.375Z,8.60
2023-02-24T17:52:51.468Z,8.60
2023-02-24T17:55:20.033Z,8.60
2023-02-24T17:57:48.443Z,8.60
2023-02-24T18:00:17.925Z,8.60
2023-02-24T18:02:46.506Z,8.60
2023-02-24T18:05:15.021Z,8.60
2023-02-24T18:07:43.402Z,8.60
2023-02-24T18:10:14.746Z,8.60
2023-02-24T18:12:43.092Z,8.60
2023-02-24T18:15:12.254Z,8.60
2023-02-24T18:17:40.810Z,8.50
2023-02-24T18:20:12.239Z,8.50
2023-02-24T18:22:40.756Z,8.40
2023-02-24T18:25:09.789Z,8.40
2023-02-24T18:27:39.546Z,8.30
2023-02-24T18:30:10.302Z,8.30
2023-02-24T18:32:44.820Z,8.30
2023-02-24T18:35:14.372Z,8.20
2023-02-24T18:37:42.917Z,8.20
2023-02-24T18:40:13.104Z,8.20
2023-02-24T18:42:43.871Z,8.20
2023-02-24T18:45:13.848Z,8.20
2023-02-24T18:47:42.237Z,8.10
2023-02-24T18:50:12.458Z,8.10
2023-02-24T18:52:41.073Z,8.10
2023-02-24T18:55:10.636Z,8.10
2023-02-24T18:57:40.295Z,8.10
2023-02-24T19:00:14.110Z,8.10
2023-02-24T19:02:42.760Z,8.10
2023-02-24T19:05:12.117Z,8.10
2023-02-24T19:07:40.527Z,8.00
2023-02-24T19:10:10.689Z,8.00
2023-02-24T19:12:39.139Z,8.00
2023-02-24T19:15:10.508Z,8.00
2023-02-24T19:17:38.842Z,8.00
2023-02-24T19:20:09.943Z,8.00
2023-02-24T19:22:38.359Z,8.00
2023-02-24T19:25:07.335Z,8.00
2023-02-24T19:27:36.793Z,8.00
2023-02-24T19:30:06.800Z,8.00
2023-02-24T19:32:36.790Z,7.90
2023-02-24T19:35:06.157Z,8.00
2023-02-24T19:37:34.746Z,7.90
2023-02-24T19:40:03.483Z,7.90
2023-02-24T19:42:31.892Z,7.90
2023-02-24T19:45:00.248Z,7.90
2023-02-24T19:47:29.096Z,7.90
2023-02-24T19:49:59.396Z,7.90
2023-02-24T19:52:27.842Z,7.90
2023-02-24T19:54:57.972Z,7.80
2023-02-24T19:57:26.426Z,7.80
2023-02-24T19:59:54.883Z,7.80
2023-02-24T20:02:24.132Z,7.80
2023-02-24T20:04:52.615Z,7.80
2023-02-24T20:07:24.388Z,7.80
2023-02-24T20:09:54.706Z,7.80
2023-02-24T20:12:23.559Z,7.80
2023-02-24T20:14:52.090Z,7.80
2023-02-24T20:17:20.803Z,7.80
2023-02-24T20:19:49.338Z,7.80
2023-02-24T20:22:17.760Z,7.80
2023-02-24T20:24:47.764Z,7.90
2023-02-24T20:27:16.232Z,7.90
2023-02-24T20:29:44.954Z,7.90
2023-02-24T20:32:13.861Z,7.90
2023-02-24T20:34:43.009Z,7.90
2023-02-24T20:37:11.582Z,7.90
2023-02-24T20:39:40.359Z,7.90
2023-02-24T20:42:12.080Z,7.90
2023-02-24T20:44:40.541Z,7.90
2023-02-24T20:47:08.859Z,7.90
2023-02-24T20:49:37.207Z,7.90
2023-02-24T20:52:05.958Z,7.90
2023-02-24T20:54:35.099Z,7.90
2023-02-24T20:57:03.481Z,7.90
2023-02-24T20:59:33.281Z,7.90
2023-02-24T21:02:01.683Z,7.90
2023-02-24T21:04:30.120Z,7.90
2023-02-24T21:06:58.466Z,7.90
2023-02-24T21:09:27.332Z,7.90
2023-02-24T21:11:55.711Z,7.90
2023-02-24T21:14:24.125Z,7.90
2023-02-24T21:16:54.123Z,7.90
2023-02-24T21:19:22.848Z,7.90
2023-02-24T21:21:51.216Z,7.90
2023-02-24T21:24:19.667Z,7.90
2023-02-24T21:26:48.497Z,7.90
2023-02-24T21:29:16.879Z,7.80
2023-02-24T21:31:45.488Z,7.80
2023-02-24T21:34:16.723Z,7.80
2023-02-24T21:36:45.302Z,7.80
2023-02-24T21:39:14.811Z,7.80
2023-02-24T21:41:43.594Z,7.80
2023-02-24T21:44:14.766Z,7.80
2023-02-24T21:46:43.622Z,7.70
2023-02-24T21:49:14.380Z,7.70
2023-02-24T21:51:44.162Z,7.60
2023-02-24T21:54:14.292Z,7.60
2023-02-24T21:56:43.044Z,7.60
2023-02-24T21:59:12.268Z,7.50
2023-02-24T22:01:43.253Z,7.60
2023-02-24T22:04:14.125Z,7.50
2023-02-24T22:06:44.866Z,7.60
2023-02-24T22:09:15.555Z,7.50
2023-02-24T22:11:43.861Z,7.50
2023-02-24T22:14:14.532Z,7.50
2023-02-24T22:16:44.025Z,7.60
2023-02-24T22:19:12.989Z,7.60
2023-02-24T22:21:43.382Z,7.60
2023-02-24T22:24:15.757Z,7.50
2023-02-24T22:26:44.997Z,7.60
2023-02-24T22:29:13.506Z,7.60
2023-02-24T22:31:43.601Z,7.60
2023-02-24T22:34:14.112Z,7.60
2023-02-24T22:36:44.026Z,7.60
2023-02-24T22:39:16.551Z,7.60
2023-02-24T22:41:45.545Z,7.60
2023-02-24T22:44:14.361Z,7.60
2023-02-24T22:46:42.845Z,7.60
2023-02-24T22:49:12.618Z,7.60
2023-02-24T22:51:42.198Z,7.50
2023-02-24T22:54:11.900Z,7.50
2023-02-24T22:56:40.388Z,7.50
2023-02-24T22:59:08.719Z,7.50
2023-02-24T23:01:38.756Z,7.50
2023-02-24T23:04:10.137Z,7.50
2023-02-24T23:06:39.143Z,7.50
2023-02-24T23:09:08.629Z,7.50
2023-02-24T23:11:41.992Z,7.50
2023-02-24T23:14:16.345Z,7.40
2023-02-24T23:16:48.246Z,7.40
2023-02-24T23:19:18.804Z,7.40
2023-02-24T23:21:49.688Z,7.40
2023-02-24T23:24:19.199Z,7.40
2023-02-24T23:26:53.832Z,7.40
2023-02-24T23:29:24.620Z,7.40
2023-02-24T23:31:54.271Z,7.40
2023-02-24T23:34:22.873Z,7.40
2023-02-24T23:36:51.576Z,7.40
2023-02-24T23:39:23.759Z,7.40
2023-02-24T23:41:57.566Z,7.30
2023-02-24T23:44:26.333Z,7.40
2023-02-24T23:46:55.004Z,7.40
2023-02-24T23:49:23.526Z,7.40
2023-02-24T23:51:51.955Z,7.40
2023-02-24T23:54:20.536Z,7.40
2023-02-24T23:56:49.185Z,7.30
2023-02-24T23:59:18.963Z,7.40
